createdAt,value
2018-03-25T00:00:40.782Z,13.70
2018-03-25T00:03:08.484Z,13.37
2018-03-25T00:05:36.124Z,13.20
2018-03-25T00:08:03.765Z,12.30
2018-03-25T00:10:31.366Z,13.57
2018-03-25T00:12:59.019Z,15.40
2018-03-25T00:15:26.616Z,11.73
2018-03-25T00:17:54.977Z,10.80
2018-03-25T00:20:22.617Z,14.10
2018-03-25T00:22:50.452Z,13.67
2018-03-25T00:25:18.091Z,10.40
2018-03-25T00:27:46.485Z,13.70
2018-03-25T00:30:14.085Z,12.23
2018-03-25T00:32:41.717Z,14.63
2018-03-25T00:35:09.313Z,12.23
2018-03-25T00:37:36.920Z,11.67
2018-03-25T00:40:04.560Z,13.43
2018-03-25T00:42:32.930Z,12.63
2018-03-25T00:45:00.532Z,15.43
2018-03-25T00:47:28.166Z,15.77
2018-03-25T00:49:56.532Z,15.53
2018-03-25T00:52:24.169Z,14.17
2018-03-25T00:54:51.782Z,15.83
2018-03-25T00:57:19.379Z,15.10
2018-03-25T00:59:47.008Z,12.57
2018-03-25T01:02:14.602Z,16.10
2018-03-25T01:04:42.221Z,14.97
2018-03-25T01:07:09.871Z,13.90
2018-03-25T01:09:38.232Z,15.53
2018-03-25T01:12:05.831Z,15.17
2018-03-25T01:14:33.459Z,16.57
2018-03-25T01:17:01.061Z,16.60
2018-03-25T01:19:28.689Z,15.63
2018-03-25T01:21:57.052Z,16.83
2018-03-25T01:24:26.195Z,15.40
2018-03-25T01:26:53.836Z,17.17
2018-03-25T01:29:22.199Z,12.67
2018-03-25T01:31:50.596Z,15.27
2018-03-25T01:34:18.959Z,16.10
2018-03-25T01:36:46.589Z,11.87
2018-03-25T01:39:14.192Z,18.03
2018-03-25T01:41:42.588Z,16.60
2018-03-25T01:44:10.183Z,17.10
2018-03-25T01:46:37.846Z,15.23
2018-03-25T01:49:05.480Z,16.97
2018-03-25T01:51:33.088Z,16.10
2018-03-25T01:54:00.712Z,15.40
2018-03-25T01:56:28.312Z,18.53
2018-03-25T01:58:55.939Z,16.27
2018-03-25T02:01:23.597Z,16.57
2018-03-25T02:03:51.192Z,17.13
2018-03-25T02:06:18.794Z,16.60
2018-03-25T02:08:46.423Z,18.53
2018-03-25T02:11:14.020Z,17.67
2018-03-25T02:13:41.638Z,17.83
2018-03-25T02:16:10.002Z,17.77
2018-03-25T02:18:37.688Z,18.80
2018-03-25T02:21:06.055Z,14.90
2018-03-25T02:23:33.680Z,15.60
2018-03-25T02:26:01.301Z,15.90
2018-03-25T02:28:29.668Z,17.10
2018-03-25T02:30:57.295Z,16.73
2018-03-25T02:33:24.900Z,18.67
2018-03-25T02:35:53.290Z,16.40
2018-03-25T02:38:21.660Z,16.13
2018-03-25T02:40:50.065Z,15.83
2018-03-25T02:43:17.672Z,16.20
2018-03-25T02:45:45.265Z,16.77
2018-03-25T02:48:12.912Z,16.13
2018-03-25T02:50:40.522Z,15.53
2018-03-25T02:53:08.113Z,15.13
2018-03-25T02:55:35.749Z,17.73
2018-03-25T02:58:03.350Z,18.47
2018-03-25T03:00:30.951Z,17.23
2018-03-25T03:02:58.568Z,16.27
2018-03-25T03:05:26.174Z,15.93
2018-03-25T03:07:53.805Z,16.33
2018-03-25T03:10:22.194Z,17.27
2018-03-25T03:12:50.560Z,19.47
2018-03-25T03:15:18.955Z,18.67
2018-03-25T03:17:47.316Z,19.30
2018-03-25T03:20:14.939Z,17.97
2018-03-25T03:22:42.535Z,15.67
2018-03-25T03:25:10.925Z,16.70
2018-03-25T03:27:39.292Z,14.23
2018-03-25T03:30:06.912Z,18.70
2018-03-25T03:32:34.504Z,17.30
2018-03-25T03:35:02.130Z,15.33
2018-03-25T03:37:29.726Z,18.70
2018-03-25T03:39:57.351Z,18.87
2018-03-25T03:42:24.948Z,18.13
2018-03-25T03:44:54.086Z,16.27
2018-03-25T03:47:21.689Z,18.27
2018-03-25T03:49:49.322Z,20.37
2018-03-25T03:52:16.924Z,18.80
2018-03-25T03:54:44.549Z,18.20
2018-03-25T03:57:12.139Z,15.77
2018-03-25T03:59:39.769Z,18.83
2018-03-25T04:02:07.367Z,19.80
2018-03-25T04:04:34.969Z,15.70
2018-03-25T04:07:02.588Z,16.93
2018-03-25T04:09:30.193Z,15.43
2018-03-25T04:11:57.818Z,15.60
2018-03-25T04:14:26.410Z,15.33
2018-03-25T04:16:55.013Z,19.27
2018-03-25T04:19:22.840Z,15.33
2018-03-25T04:21:50.691Z,17.00
2018-03-25T04:24:18.666Z,21.33
2018-03-25T04:26:46.312Z,17.67
2018-03-25T04:29:13.931Z,17.77
2018-03-25T04:31:42.330Z,16.47
2018-03-25T04:34:09.933Z,13.20
2018-03-25T04:36:37.573Z,20.93
2018-03-25T04:39:05.178Z,19.30
2018-03-25T04:41:33.572Z,19.17
2018-03-25T04:44:01.932Z,20.37
2018-03-25T04:46:30.333Z,15.80
2018-03-25T04:48:57.935Z,19.40
2018-03-25T04:51:25.570Z,20.63
2018-03-25T04:53:53.174Z,19.37
2018-03-25T04:56:20.796Z,17.37
2018-03-25T04:58:48.392Z,18.80
2018-03-25T05:01:16.020Z,22.10
2018-03-25T05:03:43.620Z,19.77
2018-03-25T05:06:11.254Z,15.80
2018-03-25T05:08:38.855Z,20.57
2018-03-25T05:11:06.503Z,16.97
2018-03-25T05:13:35.607Z,18.90
2018-03-25T05:16:03.210Z,19.57
2018-03-25T05:18:30.827Z,15.40
2018-03-25T05:20:58.437Z,18.70
2018-03-25T05:23:26.060Z,18.27
2018-03-25T05:25:53.655Z,15.83
2018-03-25T05:28:21.275Z,20.07
2018-03-25T05:30:48.875Z,15.93
2018-03-25T05:33:16.491Z,16.30
2018-03-25T05:35:44.083Z,18.50
2018-03-25T05:38:11.707Z,17.57
2018-03-25T05:40:40.106Z,18.20
2018-03-25T05:43:08.478Z,18.47
2018-03-25T05:45:36.076Z,20.57
2018-03-25T05:48:03.696Z,18.90
2018-03-25T05:50:32.796Z,16.03
2018-03-25T05:53:01.196Z,17.37
2018-03-25T05:55:29.557Z,21.60
2018-03-25T05:57:57.951Z,20.70
2018-03-25T06:00:26.328Z,20.87
2018-03-25T06:02:54.734Z,22.07
2018-03-25T06:05:22.323Z,17.70
2018-03-25T06:07:49.917Z,19.40
2018-03-25T06:10:18.321Z,20.00
2018-03-25T06:12:45.915Z,17.57
2018-03-25T06:15:13.559Z,20.80
2018-03-25T06:17:41.151Z,20.53
2018-03-25T06:20:08.760Z,16.17
2018-03-25T06:22:36.392Z,16.13
2018-03-25T06:25:04.764Z,18.40
2018-03-25T06:27:32.398Z,21.20
2018-03-25T06:29:59.992Z,19.50
2018-03-25T06:32:27.628Z,16.50
2018-03-25T06:34:55.221Z,19.93
2018-03-25T06:37:23.589Z,19.53
2018-03-25T06:39:51.992Z,16.70
2018-03-25T06:42:20.357Z,14.50
2018-03-25T06:44:48.725Z,15.83
2018-03-25T06:47:16.364Z,15.47
2018-03-25T06:49:43.960Z,14.83
2018-03-25T06:52:12.360Z,15.27
2018-03-25T06:54:39.972Z,19.67
2018-03-25T06:57:07.606Z,13.90
2018-03-25T06:59:35.208Z,17.07
2018-03-25T07:02:02.883Z,15.20
2018-03-25T07:04:30.469Z,16.20
2018-03-25T07:06:58.065Z,20.03
2018-03-25T07:09:25.695Z,17.13
2018-03-25T07:11:53.300Z,17.93
2018-03-25T07:14:20.936Z,13.00
2018-03-25T07:16:48.569Z,15.33
2018-03-25T07:19:16.166Z,16.90
2018-03-25T07:21:43.768Z,13.60
2018-03-25T07:24:12.165Z,19.20
2018-03-25T07:26:39.780Z,15.90
2018-03-25T07:29:07.417Z,13.17
2018-03-25T07:31:35.108Z,13.00
2018-03-25T07:34:03.708Z,14.60
2018-03-25T07:36:31.301Z,19.00
2018-03-25T07:38:58.996Z,17.73
2018-03-25T07:41:26.598Z,19.40
2018-03-25T07:43:55.011Z,17.00
2018-03-25T07:46:22.697Z,15.17
2018-03-25T07:48:50.321Z,15.53
2018-03-25T07:51:17.927Z,14.70
2018-03-25T07:53:45.565Z,17.53
2018-03-25T07:56:13.172Z,14.13
2018-03-25T07:58:40.799Z,10.97
2018-03-25T08:01:08.393Z,15.17
2018-03-25T08:03:36.027Z,14.43
2018-03-25T08:06:03.655Z,15.40
2018-03-25T08:08:31.256Z,14.30
2018-03-25T08:10:58.865Z,13.27
2018-03-25T08:13:27.254Z,14.20
2018-03-25T08:15:54.853Z,14.90
2018-03-25T08:18:22.473Z,13.33
2018-03-25T08:20:50.076Z,11.17
2018-03-25T08:23:17.688Z,13.53
2018-03-25T08:25:45.284Z,14.20
2018-03-25T08:28:12.913Z,15.30
2018-03-25T08:30:40.516Z,12.47
2018-03-25T08:33:08.178Z,16.67
2018-03-25T08:35:35.873Z,11.33
2018-03-25T08:38:03.503Z,10.20
2018-03-25T08:40:31.096Z,12.87
2018-03-25T08:42:58.718Z,14.07
2018-03-25T08:45:26.312Z,16.27
2018-03-25T08:47:54.699Z,12.17
2018-03-25T08:50:23.056Z,10.30
2018-03-25T08:52:50.697Z,14.10
2018-03-25T08:55:18.344Z,13.47
2018-03-25T08:57:45.939Z,15.30
2018-03-25T09:00:13.532Z,14.47
2018-03-25T09:02:41.160Z,12.90
2018-03-25T09:05:08.794Z,16.03
2018-03-25T09:07:36.458Z,14.00
2018-03-25T09:10:04.064Z,13.80
2018-03-25T09:12:32.427Z,12.73
2018-03-25T09:15:00.114Z,11.80
2018-03-25T09:17:27.680Z,12.50
2018-03-25T09:19:56.078Z,12.10
2018-03-25T09:22:23.680Z,11.20
2018-03-25T09:24:51.300Z,8.67
2018-03-25T09:27:18.900Z,13.13
2018-03-25T09:29:46.524Z,12.90
2018-03-25T09:32:14.117Z,12.47
2018-03-25T09:34:41.742Z,12.43
2018-03-25T09:37:09.351Z,12.97
2018-03-25T09:39:36.995Z,13.00
2018-03-25T09:42:04.585Z,9.40
2018-03-25T09:44:32.212Z,11.73
2018-03-25T09:46:59.816Z,13.00
2018-03-25T09:49:28.231Z,13.37
2018-03-25T09:51:55.820Z,9.60
2018-03-25T09:54:23.443Z,10.77
2018-03-25T09:56:51.358Z,11.80
2018-03-25T09:59:18.961Z,13.93
2018-03-25T10:01:52.535Z,12.70
2018-03-25T10:04:20.140Z,11.93
2018-03-25T10:06:47.735Z,15.13
2018-03-25T10:09:15.369Z,12.60
2018-03-25T10:11:42.976Z,13.10
2018-03-25T10:14:10.598Z,11.00
2018-03-25T10:16:38.260Z,13.00
2018-03-25T10:19:05.925Z,13.50
2018-03-25T10:21:33.553Z,11.77
2018-03-25T10:24:01.165Z,12.00
2018-03-25T10:26:29.836Z,12.23
2018-03-25T10:28:57.439Z,12.50
2018-03-25T10:31:25.837Z,12.63
2018-03-25T10:33:53.476Z,10.70
2018-03-25T10:36:22.291Z,9.73
2018-03-25T10:38:49.930Z,8.53
2018-03-25T10:41:18.436Z,11.70
2018-03-25T10:43:46.145Z,11.97
2018-03-25T10:46:13.755Z,8.90
2018-03-25T10:48:41.365Z,12.07
2018-03-25T10:51:09.028Z,9.37
2018-03-25T10:53:36.656Z,12.60
2018-03-25T10:56:04.253Z,11.80
2018-03-25T10:58:31.890Z,12.63
2018-03-25T11:00:59.505Z,11.80
2018-03-25T11:03:27.882Z,11.60
2018-03-25T11:05:56.286Z,12.63
2018-03-25T11:08:23.885Z,11.20
2018-03-25T11:10:51.512Z,12.40
2018-03-25T11:13:19.109Z,11.33
2018-03-25T11:15:46.736Z,10.90
2018-03-25T11:18:14.339Z,12.47
2018-03-25T11:20:42.749Z,10.60
2018-03-25T11:23:11.120Z,10.30
2018-03-25T11:25:39.513Z,10.53
2018-03-25T11:28:07.882Z,10.07
2018-03-25T11:30:36.276Z,10.73
2018-03-25T11:33:03.869Z,10.60
2018-03-25T11:35:31.465Z,10.50
2018-03-25T11:37:59.094Z,12.10
2018-03-25T11:40:26.702Z,11.60
2018-03-25T11:42:55.110Z,9.77
2018-03-25T11:45:22.704Z,11.93
2018-03-25T11:47:50.301Z,10.93
2018-03-25T11:50:18.701Z,9.70
2018-03-25T11:52:46.314Z,10.17
2018-03-25T11:55:13.940Z,13.17
2018-03-25T11:57:41.548Z,10.80
2018-03-25T12:00:09.180Z,12.57
2018-03-25T12:02:36.784Z,11.13
2018-03-25T12:05:05.201Z,11.70
2018-03-25T12:07:32.800Z,9.37
2018-03-25T12:10:00.422Z,10.70
2018-03-25T12:12:28.020Z,10.90
2018-03-25T12:14:55.704Z,11.63
2018-03-25T12:17:24.069Z,9.70
2018-03-25T12:19:51.696Z,10.23
2018-03-25T12:22:19.288Z,12.00
2018-03-25T12:24:46.924Z,12.60
2018-03-25T12:27:14.524Z,13.53
2018-03-25T12:29:42.123Z,11.23
2018-03-25T12:32:09.864Z,11.90
2018-03-25T12:34:38.233Z,13.27
2018-03-25T12:37:06.629Z,12.13
2018-03-25T12:39:34.237Z,12.17
2018-03-25T12:42:01.989Z,12.87
2018-03-25T12:44:29.581Z,9.33
2018-03-25T12:46:57.319Z,14.63
2018-03-25T12:49:25.093Z,12.10
2018-03-25T12:51:52.724Z,11.83
2018-03-25T12:54:20.348Z,12.33
2018-03-25T12:56:48.712Z,12.03
2018-03-25T12:59:17.130Z,13.50
2018-03-25T13:01:44.756Z,13.07
2018-03-25T13:04:12.382Z,13.63
2018-03-25T13:06:39.987Z,12.40
2018-03-25T13:09:08.399Z,13.20
2018-03-25T13:11:38.117Z,15.53
2018-03-25T13:14:08.170Z,13.43
2018-03-25T13:16:36.681Z,14.70
2018-03-25T13:19:05.079Z,13.50
2018-03-25T13:21:32.681Z,13.60
2018-03-25T13:24:00.303Z,13.57
2018-03-25T13:26:27.900Z,14.10
2018-03-25T13:28:55.575Z,13.47
2018-03-25T13:31:23.156Z,14.57
2018-03-25T13:33:50.889Z,15.27
2018-03-25T13:36:18.479Z,13.00
2018-03-25T13:38:46.424Z,13.47
2018-03-25T13:41:14.857Z,13.27
2018-03-25T13:43:42.457Z,14.13
2018-03-25T13:46:10.057Z,10.27
2018-03-25T13:48:38.447Z,13.50
2018-03-25T13:51:06.814Z,13.50
2018-03-25T13:53:35.201Z,14.00
2018-03-25T13:56:04.722Z,13.53
2018-03-25T13:58:34.069Z,12.30
2018-03-25T14:01:02.425Z,14.13
2018-03-25T14:03:30.048Z,14.17
2018-03-25T14:05:58.404Z,15.87
2018-03-25T14:08:26.792Z,13.53
2018-03-25T14:10:55.164Z,13.60
2018-03-25T14:13:22.810Z,14.60
2018-03-25T14:15:50.437Z,14.47
2018-03-25T14:18:18.109Z,13.33
2018-03-25T14:20:45.702Z,14.70
2018-03-25T14:23:15.197Z,14.10
2018-03-25T14:25:42.811Z,15.47
2018-03-25T14:28:10.499Z,16.17
2018-03-25T14:30:38.100Z,15.93
2018-03-25T14:33:06.492Z,13.53
2018-03-25T14:35:34.852Z,14.67
2018-03-25T14:38:03.991Z,13.90
2018-03-25T14:40:31.588Z,14.50
2018-03-25T14:42:59.184Z,13.70
2018-03-25T14:45:26.847Z,15.77
2018-03-25T14:47:55.220Z,13.93
2018-03-25T14:50:24.382Z,15.70
2018-03-25T14:52:52.065Z,12.90
2018-03-25T14:55:19.712Z,14.80
2018-03-25T14:57:47.317Z,15.00
2018-03-25T15:00:15.704Z,14.23
2018-03-25T15:02:43.345Z,13.57
2018-03-25T15:05:10.964Z,14.83
2018-03-25T15:07:38.572Z,14.40
2018-03-25T15:10:06.964Z,13.73
2018-03-25T15:12:34.569Z,13.33
2018-03-25T15:15:02.196Z,13.23
2018-03-25T15:17:29.886Z,13.90
2018-03-25T15:19:57.507Z,16.40
2018-03-25T15:22:25.877Z,13.70
2018-03-25T15:24:54.272Z,14.30
2018-03-25T15:27:21.879Z,13.17
2018-03-25T15:29:49.516Z,13.87
2018-03-25T15:32:17.124Z,14.20
2018-03-25T15:34:44.726Z,13.43
2018-03-25T15:37:12.348Z,13.70
2018-03-25T15:39:40.725Z,12.90
2018-03-25T15:42:08.347Z,13.27
2018-03-25T15:44:35.944Z,14.33
2018-03-25T15:47:03.603Z,14.97
2018-03-25T15:49:31.197Z,12.67
2018-03-25T15:51:58.817Z,15.83
2018-03-25T15:54:26.426Z,14.97
2018-03-25T15:56:54.060Z,14.47
2018-03-25T15:59:22.417Z,15.53
2018-03-25T16:01:50.049Z,14.10
2018-03-25T16:04:17.642Z,16.00
2018-03-25T16:06:45.268Z,15.40
2018-03-25T16:09:12.935Z,14.30
2018-03-25T16:11:40.565Z,17.43
2018-03-25T16:14:08.178Z,16.23
2018-03-25T16:16:35.803Z,14.30
2018-03-25T16:19:03.406Z,13.93
2018-03-25T16:21:31.038Z,13.77
2018-03-25T16:23:58.640Z,14.13
2018-03-25T16:26:27.028Z,13.10
2018-03-25T16:28:55.386Z,13.93
2018-03-25T16:31:23.052Z,14.67
2018-03-25T16:33:50.896Z,15.40
2018-03-25T16:36:18.499Z,14.37
2018-03-25T16:38:47.132Z,15.60
2018-03-25T16:41:15.554Z,15.20
2018-03-25T16:43:44.034Z,15.93
2018-03-25T16:46:11.663Z,14.40
2018-03-25T16:48:39.261Z,16.40
2018-03-25T16:51:08.396Z,18.00
2018-03-25T16:53:36.949Z,17.47
2018-03-25T16:56:04.624Z,14.90
2018-03-25T16:58:32.253Z,15.50
2018-03-25T17:00:59.863Z,14.93
2018-03-25T17:03:27.484Z,13.97
2018-03-25T17:05:55.857Z,14.87
2018-03-25T17:08:24.514Z,15.20
2018-03-25T17:10:52.287Z,14.50
2018-03-25T17:13:20.177Z,14.00
2018-03-25T17:15:48.833Z,15.50
2018-03-25T17:18:16.707Z,14.40
2018-03-25T17:20:44.300Z,15.50
2018-03-25T17:23:12.685Z,15.50
2018-03-25T17:25:40.305Z,15.57
2018-03-25T17:28:08.072Z,16.10
2018-03-25T17:30:35.676Z,15.83
2018-03-25T17:33:04.347Z,16.23
2018-03-25T17:35:31.708Z,16.00
2018-03-25T17:38:00.361Z,16.10
2018-03-25T17:40:28.780Z,18.80
2018-03-25T17:42:56.376Z,17.87
2018-03-25T17:45:23.972Z,19.23
2018-03-25T17:47:52.415Z,18.50
2018-03-25T17:50:20.029Z,25.93
2018-03-25T17:52:48.417Z,19.20
2018-03-25T17:55:16.776Z,18.80
2018-03-25T17:57:45.353Z,23.77
2018-03-25T18:00:13.217Z,22.13
2018-03-25T18:02:41.072Z,19.07
2018-03-25T18:05:08.698Z,21.13
2018-03-25T18:07:36.303Z,22.30
2018-03-25T18:10:03.931Z,21.87
2018-03-25T18:12:31.531Z,31.80
2018-03-25T18:14:59.182Z,27.90
2018-03-25T18:17:34.097Z,19.40
2018-03-25T18:19:56.184Z,25.77
2018-03-25T18:22:23.789Z,19.80
2018-03-25T18:24:51.416Z,23.63
2018-03-25T18:27:19.013Z,21.13
2018-03-25T18:29:46.645Z,20.97
2018-03-25T18:32:14.245Z,19.00
2018-03-25T18:34:41.856Z,20.43
2018-03-25T18:37:09.485Z,19.13
2018-03-25T18:39:37.860Z,22.70
2018-03-25T18:42:05.497Z,20.17
2018-03-25T18:44:33.092Z,19.90
2018-03-25T18:47:01.468Z,20.87
2018-03-25T18:49:29.322Z,19.67
2018-03-25T18:51:57.721Z,19.77
2018-03-25T18:54:26.116Z,18.90
2018-03-25T18:56:53.712Z,19.97
2018-03-25T18:59:21.332Z,20.07
2018-03-25T19:01:49.701Z,18.80
2018-03-25T19:04:18.222Z,17.17
2018-03-25T19:06:45.829Z,18.43
2018-03-25T19:09:13.447Z,18.40
2018-03-25T19:11:41.050Z,19.30
2018-03-25T19:14:08.673Z,16.80
2018-03-25T19:16:36.269Z,17.47
2018-03-25T19:19:03.904Z,18.40
2018-03-25T19:21:31.511Z,17.87
2018-03-25T19:23:59.905Z,18.53
2018-03-25T19:26:27.603Z,19.07
2018-03-25T19:28:55.231Z,18.60
2018-03-25T19:31:22.837Z,19.47
2018-03-25T19:33:50.472Z,18.40
2018-03-25T19:36:18.272Z,18.70
2018-03-25T19:38:45.872Z,20.07
2018-03-25T19:41:14.264Z,15.23
2018-03-25T19:43:41.876Z,15.33
2018-03-25T19:46:09.524Z,13.90
2018-03-25T19:48:37.186Z,20.07
2018-03-25T19:51:04.791Z,18.97
2018-03-25T19:53:34.485Z,19.83
2018-03-25T19:56:04.091Z,21.07
2018-03-25T19:58:34.074Z,18.07
2018-03-25T20:01:03.166Z,19.00
2018-03-25T20:03:33.768Z,14.77
2018-03-25T20:06:02.664Z,20.70
2018-03-25T20:08:31.731Z,22.40
2018-03-25T20:11:04.722Z,17.23
2018-03-25T20:13:35.299Z,15.60
2018-03-25T20:16:05.918Z,13.80
2018-03-25T20:18:34.825Z,19.37
2018-03-25T20:21:02.591Z,16.00
2018-03-25T20:23:31.004Z,18.90
2018-03-25T20:25:58.622Z,20.10
2018-03-25T20:28:26.227Z,21.03
2018-03-25T20:30:54.745Z,18.80
2018-03-25T20:33:22.344Z,19.43
2018-03-25T20:35:49.974Z,18.80
2018-03-25T20:38:17.587Z,17.53
2018-03-25T20:40:45.580Z,15.27
2018-03-25T20:43:13.948Z,20.50
2018-03-25T20:45:42.471Z,14.30
2018-03-25T20:48:10.095Z,15.30
2018-03-25T20:50:38.492Z,14.60
2018-03-25T20:53:06.102Z,18.90
2018-03-25T20:55:33.749Z,18.23
2018-03-25T20:58:01.359Z,20.53
2018-03-25T21:00:29.757Z,21.70
2018-03-25T21:02:57.355Z,19.40
2018-03-25T21:05:24.978Z,19.03
2018-03-25T21:07:52.583Z,14.40
2018-03-25T21:10:20.210Z,14.70
2018-03-25T21:12:47.807Z,17.67
2018-03-25T21:15:15.433Z,14.40
2018-03-25T21:17:43.037Z,18.20
2018-03-25T21:20:10.667Z,17.73
2018-03-25T21:22:38.264Z,15.93
2018-03-25T21:25:06.215Z,15.57
2018-03-25T21:27:34.025Z,18.70
2018-03-25T21:30:02.669Z,14.17
2018-03-25T21:32:30.534Z,15.10
2018-03-25T21:34:58.168Z,14.77
2018-03-25T21:37:25.765Z,13.60
2018-03-25T21:39:53.361Z,18.70
2018-03-25T21:42:20.989Z,18.73
2018-03-25T21:44:48.592Z,16.50
2018-03-25T21:47:16.224Z,14.37
2018-03-25T21:49:46.739Z,14.23
2018-03-25T21:52:14.503Z,17.20
2018-03-25T21:54:42.103Z,12.80
2018-03-25T21:57:09.734Z,13.20
2018-03-25T21:59:38.101Z,16.90
2018-03-25T22:02:05.700Z,12.70
2018-03-25T22:04:33.330Z,17.00
2018-03-25T22:07:00.929Z,15.87
2018-03-25T22:09:28.558Z,18.40
2018-03-25T22:11:56.160Z,14.70
2018-03-25T22:14:23.752Z,21.67
2018-03-25T22:16:51.380Z,20.93
2018-03-25T22:19:18.983Z,17.97
2018-03-25T22:21:46.609Z,15.63
2018-03-25T22:24:14.204Z,18.77
2018-03-25T22:26:41.854Z,15.17
2018-03-25T22:29:09.473Z,15.27
2018-03-25T22:31:37.090Z,13.80
2018-03-25T22:34:04.719Z,18.30
2018-03-25T22:36:32.318Z,16.37
2018-03-25T22:39:00.220Z,17.20
2018-03-25T22:41:27.849Z,16.47
2018-03-25T22:43:55.443Z,17.03
2018-03-25T22:46:23.068Z,16.17
2018-03-25T22:48:50.678Z,16.23
2018-03-25T22:51:18.275Z,18.20
2018-03-25T22:53:45.921Z,16.67
2018-03-25T22:56:13.518Z,16.37
2018-03-25T22:58:41.112Z,17.60
2018-03-25T23:01:08.741Z,17.47
2018-03-25T23:03:36.342Z,19.20
2018-03-25T23:06:03.960Z,18.97
2018-03-25T23:08:31.561Z,18.10
2018-03-25T23:10:59.193Z,21.33
2018-03-25T23:13:27.561Z,22.60
2018-03-25T23:15:55.911Z,22.23
2018-03-25T23:18:23.532Z,24.13
2018-03-25T23:20:51.136Z,17.40
2018-03-25T23:23:18.768Z,20.53
2018-03-25T23:25:46.375Z,24.70
2018-03-25T23:28:13.976Z,19.67
2018-03-25T23:30:41.609Z,25.77
2018-03-25T23:33:09.968Z,20.07
2018-03-25T23:35:37.596Z,21.57
2018-03-25T23:38:05.187Z,21.37
2018-03-25T23:40:32.816Z,17.90
2018-03-25T23:43:00.413Z,15.70
2018-03-25T23:45:28.016Z,19.20
2018-03-25T23:47:55.652Z,21.27
2018-03-25T23:50:24.022Z,20.30
2018-03-25T23:52:51.653Z,17.90
2018-03-25T23:55:19.248Z,24.37
2018-03-25T23:57:46.885Z,18.80
